Time;durP1;ratioP1;P1;durP2;ratioP2;P2;SDS_P1;SDS_P2;PMS_P1;PMS_P2;Temp;Humidity;BMP_temperature;BMP_pressure;BME280_temperature;BME280_humidity;BME280_pressure;Samples;Min_cycle;Max_cycle;Signal;HPM_P1;HPM_P2
2022/08/14 00:01:15;;;;;;;6.60;6.00;;;20.60;99.90;;;;;;5097450;28;20904;-48
2022/08/14 00:03:47;;;;;;;7.70;7.00;;;20.50;99.90;;;;;;5095767;28;20499;-48
2022/08/14 00:06:15;;;;;;;7.93;7.13;;;20.60;99.90;;;;;;5097736;28;20460;-48
2022/08/14 00:08:45;;;;;;;7.10;6.50;;;20.60;99.90;;;;;;5096725;28;20835;-48
2022/08/14 00:11:16;;;;;;;7.23;6.63;;;20.60;99.90;;;;;;5097322;28;20969;-48
2022/08/14 00:13:43;;;;;;;7.20;6.70;;;20.60;99.90;;;;;;5097902;28;20538;-50
2022/08/14 00:16:13;;;;;;;8.10;7.50;;;20.50;99.90;;;;;;5095672;28;20870;-48
2022/08/14 00:18:40;;;;;;;8.97;7.57;;;20.50;99.90;;;;;;5096835;28;20764;-52
2022/08/14 00:21:13;;;;;;;7.10;6.50;;;20.50;99.90;;;;;;5096925;28;20488;-49
2022/08/14 00:23:42;;;;;;;8.40;7.70;;;20.60;99.90;;;;;;5097187;28;20527;-48
2022/08/14 00:26:09;;;;;;;8.03;7.27;;;20.50;99.90;;;;;;5096163;28;20521;-48
2022/08/14 00:28:39;;;;;;;7.93;7.23;;;20.40;99.90;;;;;;5099179;28;20795;-52
2022/08/14 00:31:07;;;;;;;8.40;7.73;;;20.40;99.90;;;;;;5095681;28;20453;-50
2022/08/14 00:33:35;;;;;;;12.10;8.77;;;20.30;99.90;;;;;;5096625;28;20461;-49
2022/08/14 00:36:06;;;;;;;7.47;6.87;;;20.20;99.90;;;;;;5097013;28;20460;-49
2022/08/14 00:38:35;;;;;;;8.30;7.60;;;20.30;99.90;;;;;;5096910;28;20500;-48
2022/08/14 00:41:05;;;;;;;7.87;7.07;;;20.30;99.90;;;;;;5097005;28;20561;-50
2022/08/14 00:43:35;;;;;;;7.67;7.10;;;20.30;99.90;;;;;;5097630;28;20464;-49
2022/08/14 00:46:07;;;;;;;8.73;8.03;;;20.30;99.90;;;;;;5096381;28;20457;-48
2022/08/14 00:48:34;;;;;;;9.00;8.20;;;20.30;99.90;;;;;;5096834;28;20735;-48
2022/08/14 00:51:01;;;;;;;8.67;7.97;;;20.30;99.90;;;;;;5096412;28;20565;-48
2022/08/14 00:53:30;;;;;;;9.73;8.83;;;20.20;99.90;;;;;;5096891;28;20559;-48
2022/08/14 00:55:59;;;;;;;9.20;8.37;;;20.20;99.90;;;;;;5096636;28;20468;-49
2022/08/14 00:58:32;;;;;;;8.23;7.63;;;20.20;99.90;;;;;;5096477;28;20464;-48
2022/08/14 01:01:04;;;;;;;8.80;8.10;;;20.10;99.90;;;;;;5096852;28;20565;-51
2022/08/14 01:03:38;;;;;;;8.80;8.10;;;20.00;99.90;;;;;;5097059;28;20895;-48
2022/08/14 01:06:07;;;;;;;9.70;8.70;;;20.10;99.90;;;;;;5096913;28;20464;-48
2022/08/14 01:08:40;;;;;;;7.87;7.13;;;20.10;99.90;;;;;;5095884;28;20447;-50
2022/08/14 01:11:14;;;;;;;9.30;8.60;;;20.10;99.90;;;;;;5096708;28;20509;-48
2022/08/14 01:13:43;;;;;;;10.23;9.43;;;20.10;99.90;;;;;;5096844;28;20464;-49
2022/08/14 01:16:14;;;;;;;9.70;8.37;;;20.00;99.90;;;;;;5096535;28;20587;-49
2022/08/14 01:21:35;;;;;;;9.27;8.47;;;19.90;99.90;;;;;;5096575;28;20463;-50
2022/08/14 01:24:09;;;;;;;9.70;8.90;;;19.90;99.90;;;;;;5096230;28;20441;-49
2022/08/14 01:26:37;;;;;;;8.80;8.10;;;19.90;99.90;;;;;;5095736;28;20547;-53
2022/08/14 01:29:08;;;;;;;9.60;8.80;;;19.90;99.90;;;;;;5098455;28;20453;-50
2022/08/14 01:31:42;;;;;;;9.00;8.30;;;19.90;99.90;;;;;;5100000;28;20496;-49
2022/08/14 01:34:09;;;;;;;10.80;8.60;;;19.90;99.90;;;;;;5100361;28;20464;-48
2022/08/14 01:36:40;;;;;;;9.87;9.07;;;19.90;99.90;;;;;;5099867;28;20506;-48
2022/08/14 01:39:09;;;;;;;8.33;7.73;;;19.90;99.90;;;;;;5094133;28;20460;-49
2022/08/14 01:41:37;;;;;;;8.93;8.23;;;20.00;99.90;;;;;;5100191;28;20555;-48
2022/08/14 01:44:11;;;;;;;9.80;9.03;;;20.00;99.90;;;;;;5100530;28;20475;-51
2022/08/14 01:46:40;;;;;;;9.27;8.47;;;20.00;99.90;;;;;;5100345;28;20830;-49
2022/08/14 01:49:10;;;;;;;10.23;9.33;;;19.90;99.90;;;;;;5098824;28;20864;-51
2022/08/14 01:51:40;;;;;;;9.47;8.70;;;19.90;99.90;;;;;;5099837;28;20919;-48
2022/08/14 01:54:10;;;;;;;10.10;9.10;;;19.80;99.90;;;;;;5099645;28;20929;-48
2022/08/14 01:56:41;;;;;;;8.70;8.00;;;19.80;99.90;;;;;;5099454;28;20496;-50
2022/08/14 01:59:21;;;;;;;10.37;9.13;;;19.80;99.90;;;;;;5099090;28;20439;-48
2022/08/14 02:01:50;;;;;;;9.40;8.70;;;19.70;99.90;;;;;;5099875;28;20542;-48
2022/08/14 02:04:20;;;;;;;10.30;9.40;;;19.70;99.90;;;;;;5079574;28;20457;-48
2022/08/14 02:06:52;;;;;;;10.00;9.20;;;19.60;99.90;;;;;;5079416;28;20485;-49
2022/08/14 02:09:20;;;;;;;10.40;9.50;;;19.60;99.90;;;;;;5089377;28;20921;-51
2022/08/14 02:11:48;;;;;;;9.20;8.50;;;19.70;99.90;;;;;;5099525;28;20717;-48
2022/08/14 02:14:16;;;;;;;12.97;8.60;;;19.60;99.90;;;;;;5099161;28;20490;-49
2022/08/14 02:16:47;;;;;;;10.10;9.20;;;19.50;99.90;;;;;;5099029;28;20488;-49
2022/08/14 02:19:17;;;;;;;9.77;8.97;;;19.50;99.90;;;;;;5099200;28;20881;-49
2022/08/14 02:21:47;;;;;;;10.60;9.70;;;19.50;99.90;;;;;;5099631;28;20492;-49
2022/08/14 02:24:16;;;;;;;10.20;9.30;;;19.60;99.90;;;;;;5098849;28;20466;-48
2022/08/14 02:26:46;;;;;;;9.53;8.63;;;19.50;99.90;;;;;;5099179;28;20558;-48
2022/08/14 02:29:18;;;;;;;10.73;9.83;;;19.50;99.90;;;;;;5098724;28;20961;-49
2022/08/14 02:31:50;;;;;;;10.10;9.20;;;19.50;99.90;;;;;;5098253;28;20481;-48
2022/08/14 02:34:19;;;;;;;10.60;9.80;;;19.50;99.90;;;;;;5099290;28;20457;-49
2022/08/14 02:36:50;;;;;;;9.97;9.07;;;19.40;99.90;;;;;;5098974;28;21000;-48
2022/08/14 02:39:19;;;;;;;10.13;9.33;;;19.30;99.90;;;;;;5098571;28;20877;-49
2022/08/14 02:41:50;;;;;;;10.70;9.80;;;19.30;99.90;;;;;;5097972;28;20545;-49
2022/08/14 02:44:23;;;;;;;10.93;10.13;;;19.40;99.90;;;;;;5098916;28;20452;-48
2022/08/14 02:46:55;;;;;;;10.07;9.27;;;19.40;99.90;;;;;;5098786;28;20462;-49
2022/08/14 02:49:26;;;;;;;10.17;9.40;;;19.40;99.90;;;;;;5098839;28;20468;-49
2022/08/14 02:51:54;;;;;;;10.57;9.77;;;19.30;99.90;;;;;;5098645;28;20457;-49
2022/08/14 02:54:23;;;;;;;10.93;9.93;;;19.20;99.90;;;;;;5098810;28;20555;-52
2022/08/14 02:56:54;;;;;;;10.70;9.90;;;19.10;99.90;;;;;;5098313;28;20554;-48
2022/08/14 02:59:27;;;;;;;10.60;9.70;;;19.10;99.90;;;;;;5098781;28;20467;-49
2022/08/14 03:01:54;;;;;;;10.83;9.93;;;19.20;99.90;;;;;;5097666;28;20508;-49
2022/08/14 03:04:23;;;;;;;9.80;9.00;;;19.20;99.90;;;;;;5098713;28;20439;-50
2022/08/14 03:06:50;;;;;;;9.80;9.00;;;19.20;99.90;;;;;;5098044;28;20468;-51
2022/08/14 03:09:19;;;;;;;11.57;10.67;;;19.20;99.90;;;;;;5098645;28;20948;-49
2022/08/14 03:11:48;;;;;;;11.73;10.47;;;19.20;99.90;;;;;;5097778;28;20548;-48
2022/08/14 03:14:15;;;;;;;10.13;9.33;;;19.10;99.90;;;;;;5098630;28;20931;-48
2022/08/14 03:16:49;;;;;;;11.30;9.43;;;19.00;99.90;;;;;;5097693;28;20915;-50
2022/08/14 03:19:17;;;;;;;11.40;10.50;;;19.10;99.90;;;;;;5098295;28;20509;-48
2022/08/14 03:21:45;;;;;;;12.20;11.00;;;19.00;99.90;;;;;;5097456;28;20819;-48
2022/08/14 03:24:12;;;;;;;11.20;10.30;;;19.00;99.90;;;;;;5098240;28;20496;-48
2022/08/14 03:26:40;;;;;;;12.10;11.10;;;19.10;99.90;;;;;;5097567;28;20761;-50
2022/08/14 03:29:11;;;;;;;10.13;9.27;;;19.00;99.90;;;;;;5097998;28;20483;-51
2022/08/14 03:31:39;;;;;;;10.50;9.50;;;18.90;99.90;;;;;;5097694;28;20438;-49
2022/08/14 03:34:09;;;;;;;11.40;10.40;;;19.00;99.90;;;;;;5097127;28;20431;-53
2022/08/14 03:36:38;;;;;;;10.47;9.57;;;19.00;99.90;;;;;;5097590;28;20513;-51
2022/08/14 03:39:11;;;;;;;10.80;9.90;;;19.00;99.90;;;;;;5097690;28;20472;-50
2022/08/14 03:41:39;;;;;;;11.20;10.20;;;18.90;99.90;;;;;;5097779;28;20565;-51
2022/08/14 03:44:08;;;;;;;11.20;10.20;;;18.90;99.90;;;;;;5096698;28;20469;-51
2022/08/14 03:46:41;;;;;;;11.03;10.10;;;18.90;99.90;;;;;;5097446;28;20919;-52
2022/08/14 03:49:09;;;;;;;11.43;10.53;;;19.00;99.90;;;;;;5097931;28;20555;-48
2022/08/14 03:51:39;;;;;;;13.63;10.93;;;18.90;99.90;;;;;;5097185;28;20460;-52
2022/08/14 03:54:08;;;;;;;12.13;10.80;;;18.80;99.90;;;;;;5097121;28;20435;-49
2022/08/14 03:56:37;;;;;;;10.50;9.57;;;18.80;99.90;;;;;;5097787;28;20727;-48
2022/08/14 03:59:10;;;;;;;11.90;10.90;;;18.80;99.90;;;;;;5097082;28;20445;-51
2022/08/14 04:01:39;;;;;;;11.40;10.50;;;18.60;99.90;;;;;;5097559;28;20489;-50
2022/08/14 04:04:07;;;;;;;11.43;10.40;;;18.60;99.90;;;;;;5097318;28;20808;-49
2022/08/14 04:06:35;;;;;;;12.03;11.03;;;18.60;99.90;;;;;;5096876;28;20801;-51
2022/08/14 04:09:03;;;;;;;11.70;10.70;;;18.60;99.90;;;;;;5097971;28;20435;-50
2022/08/14 04:11:31;;;;;;;12.07;10.93;;;18.60;99.90;;;;;;5097151;28;20457;-50
2022/08/14 04:14:00;;;;;;;11.50;10.50;;;18.70;99.90;;;;;;5096943;28;20485;-49
2022/08/14 04:16:29;;;;;;;12.80;11.80;;;18.70;99.90;;;;;;5096878;28;20459;-49
2022/08/14 04:18:58;;;;;;;12.03;11.03;;;18.60;99.90;;;;;;5096704;28;20471;-50
2022/08/14 04:21:28;;;;;;;12.60;11.60;;;18.50;99.90;;;;;;5097161;28;20499;-48
2022/08/14 04:23:58;;;;;;;12.70;11.60;;;18.50;99.90;;;;;;5097336;28;20460;-49
2022/08/14 04:26:27;;;;;;;12.83;11.63;;;18.40;99.90;;;;;;5096677;28;20461;-49
2022/08/14 04:28:55;;;;;;;10.60;9.70;;;18.40;99.90;;;;;;5097146;28;20868;-50
2022/08/14 04:31:23;;;;;;;11.53;10.57;;;18.40;99.90;;;;;;5097146;28;20505;-51
2022/08/14 04:33:52;;;;;;;14.13;11.73;;;18.30;99.90;;;;;;5097208;28;20435;-51
2022/08/14 04:36:22;;;;;;;11.60;10.63;;;18.40;99.90;;;;;;5096884;28;20443;-49
2022/08/14 04:44:19;;;;;;;13.03;11.93;;;18.50;99.90;;;;;;5076869;28;20831;-50
2022/08/14 04:49:33;;;;;;;11.40;10.40;;;18.50;99.90;;;;;;5096879;28;20433;-48
2022/08/14 04:52:02;;;;;;;12.30;11.30;;;18.60;99.90;;;;;;5097693;28;20463;-48
2022/08/14 04:54:33;;;;;;;12.00;11.00;;;18.70;99.90;;;;;;5096895;28;20551;-48
2022/08/14 04:57:00;;;;;;;12.50;11.40;;;18.70;99.90;;;;;;5096069;28;20506;-49
2022/08/14 04:59:30;;;;;;;11.60;10.60;;;18.70;99.90;;;;;;5096829;28;20467;-51
2022/08/14 05:01:57;;;;;;;12.07;11.07;;;18.80;99.90;;;;;;5096529;28;20570;-51
2022/08/14 05:04:25;;;;;;;12.27;11.20;;;18.80;99.90;;;;;;5099431;28;20936;-49
2022/08/14 05:06:54;;;;;;;12.27;11.33;;;18.90;99.90;;;;;;5100209;28;20551;-49
2022/08/14 05:09:22;;;;;;;14.03;11.93;;;19.00;99.90;;;;;;5101230;28;20485;-52
2022/08/14 05:11:50;;;;;;;11.73;10.83;;;19.10;99.90;;;;;;5100443;28;20554;-51
2022/08/14 05:14:21;;;;;;;12.80;11.70;;;19.20;99.90;;;;;;5100833;28;20972;-50
2022/08/14 05:16:48;;;;;;;12.23;11.23;;;19.30;99.90;;;;;;5099634;28;20535;-50
2022/08/14 05:19:18;;;;;;;12.73;11.50;;;19.40;99.90;;;;;;5100893;28;20550;-49
2022/08/14 05:21:46;;;;;;;12.30;11.30;;;19.40;99.90;;;;;;5100351;28;20978;-50
2022/08/14 05:24:15;;;;;;;11.57;10.67;;;19.40;99.90;;;;;;5100871;28;20464;-54
2022/08/14 05:26:48;;;;;;;13.70;12.50;;;19.50;99.90;;;;;;5100310;28;20529;-49
2022/08/14 05:29:16;;;;;;;11.00;10.13;;;19.60;99.90;;;;;;5100728;28;20518;-49
2022/08/14 05:31:45;;;;;;;11.83;10.83;;;19.80;99.90;;;;;;5100216;28;20479;-53
2022/08/14 05:34:13;;;;;;;12.10;10.97;;;19.90;99.90;;;;;;5099682;28;20459;-49
2022/08/14 05:36:41;;;;;;;14.23;10.77;;;19.90;99.90;;;;;;5100264;28;20525;-50
2022/08/14 05:39:08;;;;;;;11.63;10.53;;;20.00;99.90;;;;;;5099491;28;20710;-52
2022/08/14 05:41:40;;;;;;;11.53;10.53;;;20.10;99.90;;;;;;5100502;28;20481;-50
2022/08/14 05:44:07;;;;;;;11.87;10.97;;;20.10;99.90;;;;;;5079981;28;20453;-53
2022/08/14 05:46:39;;;;;;;11.53;10.40;;;20.20;99.90;;;;;;5079735;28;20514;-51
2022/08/14 05:49:07;;;;;;;11.90;10.87;;;20.30;99.90;;;;;;5090592;28;20431;-53
2022/08/14 05:51:34;;;;;;;11.13;10.20;;;20.40;99.90;;;;;;5099996;28;20452;-49
2022/08/14 05:54:03;;;;;;;12.00;11.07;;;20.50;99.90;;;;;;5099718;28;20468;-53
2022/08/14 05:56:31;;;;;;;11.30;10.40;;;20.60;99.90;;;;;;5099775;28;20487;-51
2022/08/14 05:58:59;;;;;;;11.60;10.60;;;20.80;99.90;;;;;;5099213;28;20543;-51
2022/08/14 06:01:27;;;;;;;11.97;11.07;;;20.90;99.90;;;;;;5097481;28;20458;-55
2022/08/14 06:03:58;;;;;;;11.47;10.57;;;21.10;99.90;;;;;;5098119;28;20464;-54
2022/08/14 06:06:26;;;;;;;11.10;10.20;;;21.30;99.90;;;;;;5096710;28;20882;-52
2022/08/14 06:08:53;;;;;;;11.43;10.43;;;21.40;99.90;;;;;;5097817;28;20464;-51
2022/08/14 06:11:21;;;;;;;12.03;10.70;;;21.60;99.90;;;;;;5099465;28;20492;-52
2022/08/14 06:13:48;;;;;;;10.40;9.40;;;21.70;99.90;;;;;;5099052;28;20461;-52
2022/08/14 06:16:23;;;;;;;10.13;9.30;;;22.00;99.90;;;;;;5099075;28;20557;-52
2022/08/14 06:18:50;;;;;;;11.03;10.20;;;22.30;99.90;;;;;;5099621;28;20459;-57
2022/08/14 06:21:18;;;;;;;9.50;8.80;;;22.60;99.90;;;;;;5098322;28;21002;-51
2022/08/14 06:23:48;;;;;;;10.83;9.93;;;22.80;99.90;;;;;;5099572;28;20536;-52
2022/08/14 06:26:17;;;;;;;10.70;9.70;;;23.20;99.90;;;;;;5099794;28;20893;-50
2022/08/14 06:28:47;;;;;;;10.83;9.87;;;23.50;99.90;;;;;;5099220;28;20885;-52
2022/08/14 06:31:14;;;;;;;9.37;8.40;;;23.80;99.90;;;;;;5098600;28;20525;-52
2022/08/14 06:33:46;;;;;;;10.00;9.20;;;24.10;99.90;;;;;;5098870;28;20461;-52
2022/08/14 06:36:17;;;;;;;10.50;9.60;;;24.30;99.90;;;;;;5099378;28;20464;-50
2022/08/14 06:38:47;;;;;;;10.47;9.50;;;24.40;99.90;;;;;;5099018;28;20905;-50
2022/08/14 06:41:17;;;;;;;9.30;8.60;;;24.40;99.90;;;;;;5099400;28;20823;-53
2022/08/14 06:43:48;;;;;;;9.83;8.93;;;24.60;99.90;;;;;;5100079;28;20457;-50
2022/08/14 06:46:17;;;;;;;8.93;8.23;;;25.10;99.90;;;;;;5097434;28;20551;-54
2022/08/14 06:48:48;;;;;;;9.20;8.50;;;25.10;99.90;;;;;;5095619;28;20931;-52
2022/08/14 06:51:17;;;;;;;9.73;8.80;;;25.20;99.90;;;;;;5078868;28;20606;-54
2022/08/14 06:53:49;;;;;;;10.30;9.40;;;25.40;99.90;;;;;;5078571;28;20544;-50
2022/08/14 06:56:17;;;;;;;9.67;8.83;;;25.70;99.90;;;;;;5091786;28;20815;-56
2022/08/14 06:58:44;;;;;;;9.23;8.53;;;25.90;99.90;;;;;;5098446;28;20496;-55
2022/08/14 07:06:49;;;;;;;8.63;7.90;;;26.30;99.90;;;;;;5090740;28;20533;-56
2022/08/14 07:09:23;;;;;;;8.87;8.27;;;26.40;99.90;;;;;;5098656;28;20461;-53
2022/08/14 07:11:50;;;;;;;9.30;8.50;;;26.70;99.90;;;;;;5097915;28;20461;-55
2022/08/14 07:14:20;;;;;;;10.17;9.33;;;26.90;99.90;;;;;;5098555;28;20435;-51
2022/08/14 07:16:52;;;;;;;10.13;9.33;;;27.20;99.90;;;;;;5096571;28;20488;-56
2022/08/14 07:19:21;;;;;;;10.57;9.87;;;27.50;99.90;;;;;;5097073;28;20492;-56
2022/08/14 07:21:52;;;;;;;9.20;8.43;;;27.70;99.90;;;;;;5098039;28;20512;-50
2022/08/14 07:24:20;;;;;;;9.13;8.53;;;27.70;99.90;;;;;;5098250;28;20513;-55
2022/08/14 07:26:47;;;;;;;9.67;8.87;;;27.90;99.90;;;;;;5095955;28;20460;-55
2022/08/14 07:29:21;;;;;;;8.57;7.97;;;27.80;99.90;;;;;;5093524;28;20563;-51
2022/08/14 07:31:52;;;;;;;8.00;7.30;;;27.90;99.90;;;;;;5097587;28;20505;-51
2022/08/14 07:34:28;;;;;;;9.07;8.40;;;28.10;99.90;;;;;;5097688;28;20456;-55
2022/08/14 07:36:57;;;;;;;9.37;8.23;;;28.30;99.90;;;;;;5097027;28;20551;-51
2022/08/14 07:39:24;;;;;;;8.43;7.83;;;28.40;99.90;;;;;;5096499;28;20909;-56
2022/08/14 07:41:52;;;;;;;8.30;7.53;;;28.60;99.90;;;;;;5097356;28;20571;-57
2022/08/14 07:44:22;;;;;;;8.87;8.07;;;28.60;99.90;;;;;;5098120;28;20861;-54
2022/08/14 07:46:51;;;;;;;8.97;8.37;;;28.90;99.90;;;;;;5097700;28;20950;-57
2022/08/14 07:49:18;;;;;;;7.90;7.40;;;29.30;99.90;;;;;;5096098;28;20463;-57
2022/08/14 07:51:47;;;;;;;8.13;7.53;;;29.80;99.90;;;;;;5096460;28;20829;-56
2022/08/14 07:54:17;;;;;;;8.93;8.23;;;30.00;99.90;;;;;;5097557;28;20814;-55
2022/08/14 07:56:45;;;;;;;8.13;7.53;;;30.20;99.90;;;;;;5097784;28;20465;-54
2022/08/14 07:59:16;;;;;;;7.13;6.63;;;30.50;99.90;;;;;;5097019;28;20464;-55
2022/08/14 08:01:44;;;;;;;7.77;7.27;;;30.80;99.90;;;;;;5097363;28;20520;-56
2022/08/14 08:04:21;;;;;;;8.33;7.73;;;31.00;99.90;;;;;;5097511;28;20460;-51
2022/08/14 08:06:52;;;;;;;9.27;8.13;;;31.10;99.90;;;;;;5096691;28;20888;-56
2022/08/14 08:09:25;;;;;;;7.33;6.83;;;31.20;99.90;;;;;;5094725;28;20489;-57
2022/08/14 08:11:57;;;;;;;8.53;7.90;;;31.40;99.90;;;;;;5097628;28;20460;-54
2022/08/14 08:14:26;;;;;;;7.43;6.87;;;31.50;99.90;;;;;;5097366;28;20457;-56
2022/08/14 08:16:56;;;;;;;7.60;7.10;;;31.40;99.90;;;;;;5096863;28;20904;-52
2022/08/14 08:19:30;;;;;;;7.50;6.90;;;30.90;99.90;;;;;;5096912;28;20521;-57
2022/08/14 08:22:07;;;;;;;7.60;7.10;;;31.30;99.90;;;;;;5097154;28;20917;-54
2022/08/14 08:24:34;;;;;;;6.80;6.30;;;31.60;99.90;;;;;;5097013;28;20889;-56
2022/08/14 08:27:17;;;;;;;7.50;7.00;;;31.90;99.90;;;;;;5097362;28;20570;-54
2022/08/14 08:29:47;;;;;;;7.50;6.90;;;32.30;99.90;;;;;;5094895;28;20765;-55
2022/08/14 08:32:16;;;;;;;7.90;7.30;;;32.50;99.90;;;;;;5096869;28;20539;-57
2022/08/14 08:34:45;;;;;;;7.53;7.03;;;32.60;99.90;;;;;;5090283;28;20468;-55
2022/08/14 08:37:17;;;;;;;7.53;7.00;;;32.70;99.90;;;;;;5097149;28;20490;-56
2022/08/14 08:39:51;;;;;;;6.80;6.40;;;32.80;99.90;;;;;;5100672;28;20464;-58
2022/08/14 08:42:25;;;;;;;7.50;7.00;;;32.80;99.90;;;;;;5101701;28;20463;-57
2022/08/14 08:44:54;;;;;;;7.20;6.60;;;32.90;99.90;;;;;;5098917;28;20837;-55
2022/08/14 08:47:25;;;;;;;6.67;6.17;;;32.70;99.90;;;;;;5101045;28;20532;-57
2022/08/14 08:49:54;;;;;;;7.87;7.27;;;32.80;99.90;;;;;;5099825;28;20464;-52
2022/08/14 08:52:25;;;;;;;7.87;7.27;;;32.90;99.90;;;;;;5099814;28;20466;-56
2022/08/14 08:55:03;;;;;;;6.80;6.40;;;32.90;99.90;;;;;;5097541;28;20574;-54
2022/08/14 08:57:38;;;;;;;7.60;7.10;;;33.00;99.90;;;;;;5096581;28;20430;-56
2022/08/14 09:00:18;;;;;;;6.83;6.43;;;33.20;99.90;;;;;;5098116;28;20459;-56
2022/08/14 09:03:01;;;;;;;7.73;6.40;;;33.50;99.90;;;;;;5099354;28;20914;-57
2022/08/14 09:05:30;;;;;;;6.93;6.20;;;33.70;99.90;;;;;;5098993;28;20460;-53
2022/08/14 09:08:15;;;;;;;6.57;6.17;;;33.90;99.90;;;;;;5101898;28;20451;-56
2022/08/14 09:10:43;;;;;;;7.40;6.60;;;33.90;99.90;;;;;;5098216;28;20479;-53
2022/08/14 09:13:12;;;;;;;7.33;6.80;;;33.80;99.90;;;;;;5096403;28;20452;-54
2022/08/14 09:15:41;;;;;;;6.50;6.10;;;33.20;99.90;;;;;;5098976;28;20454;-56
2022/08/14 09:18:09;;;;;;;6.67;6.27;;;32.10;99.90;;;;;;5099259;28;20501;-58
2022/08/14 09:20:38;;;;;;;7.13;6.63;;;31.60;99.90;;;;;;5099020;28;20456;-57
2022/08/14 09:23:08;;;;;;;6.60;6.20;;;31.90;99.90;;;;;;5099317;28;20608;-54
2022/08/14 09:25:37;;;;;;;6.73;6.23;;;32.50;99.90;;;;;;5098321;28;20896;-57
2022/08/14 09:28:13;;;;;;;6.53;6.07;;;33.40;99.90;;;;;;5100022;28;20571;-58
2022/08/14 09:30:51;;;;;;;7.53;6.93;;;33.10;99.90;;;;;;5099151;28;20470;-55
2022/08/14 09:33:55;;;;;;;6.30;5.90;;;33.30;99.90;;;;;;5102749;28;20434;-55
2022/08/14 09:36:53;;;;;;;8.03;6.60;;;33.70;99.90;;;;;;5102067;28;20634;-58
2022/08/14 09:39:41;;;;;;;5.97;5.57;;;34.40;99.90;;;;;;5086980;28;20511;-57
2022/08/14 09:42:26;;;;;;;6.80;6.40;;;34.20;99.90;;;;;;5099851;28;20554;-57
2022/08/14 09:45:32;;;;;;;6.57;6.07;;;33.30;99.90;;;;;;5100219;28;20519;-58
2022/08/14 09:48:02;;;;;;;6.87;6.47;;;34.00;99.90;;;;;;5099507;28;20499;-54
2022/08/14 09:50:31;;;;;;;6.83;6.43;;;34.90;99.90;;;;;;5098366;28;20460;-53
2022/08/14 09:53:02;;;;;;;6.53;5.87;;;35.20;99.90;;;;;;5098441;28;20521;-56
2022/08/14 09:55:42;;;;;;;6.20;5.80;;;35.40;99.90;;;;;;5099654;28;20438;-53
2022/08/14 09:58:15;;;;;;;7.23;6.73;;;34.80;99.90;;;;;;5099605;28;20533;-51
2022/08/14 10:00:48;;;;;;;5.80;5.50;;;33.90;99.90;;;;;;5098991;28;20881;-55
2022/08/14 10:03:33;;;;;;;6.90;6.43;;;34.00;99.90;;;;;;5097690;28;20593;-57
2022/08/14 10:06:08;;;;;;;6.20;5.80;;;34.60;99.90;;;;;;5098969;28;20745;-56
2022/08/14 10:08:49;;;;;;;6.93;6.43;;;34.60;99.90;;;;;;5098651;28;20491;-56
2022/08/14 10:11:28;;;;;;;6.20;5.80;;;34.40;99.90;;;;;;5098935;28;20470;-50
2022/08/14 10:14:03;;;;;;;6.80;6.30;;;34.70;99.90;;;;;;5097950;28;20900;-55
2022/08/14 10:16:43;;;;;;;6.37;5.87;;;35.10;99.90;;;;;;5098722;28;20940;-55
2022/08/14 10:19:12;;;;;;;5.63;5.33;;;35.50;99.90;;;;;;5097143;28;20865;-54
2022/08/14 10:21:47;;;;;;;6.47;6.10;;;36.00;99.90;;;;;;5099372;28;20439;-54
2022/08/14 10:24:31;;;;;;;7.10;6.57;;;34.70;99.90;;;;;;5098208;28;20559;-57
2022/08/14 10:27:00;;;;;;;6.67;6.00;;;35.10;99.90;;;;;;5097848;28;20732;-53
2022/08/14 10:29:42;;;;;;;5.97;5.67;;;34.50;99.90;;;;;;5097176;28;20733;-53
2022/08/14 10:32:10;;;;;;;6.60;6.10;;;33.90;99.90;;;;;;5095856;28;20426;-56
2022/08/14 10:34:41;;;;;;;6.03;5.63;;;33.50;99.90;;;;;;5096841;28;20912;-53
2022/08/14 10:37:11;;;;;;;6.13;5.83;;;33.80;99.90;;;;;;5098469;28;20839;-51
2022/08/14 10:39:41;;;;;;;6.03;5.50;;;34.60;99.90;;;;;;5098130;28;20888;-55
2022/08/14 10:42:12;;;;;;;6.70;6.20;;;35.50;99.90;;;;;;5098202;28;20452;-58
2022/08/14 10:44:47;;;;;;;7.37;6.87;;;35.80;99.90;;;;;;5094547;28;20896;-58
2022/08/14 10:47:17;;;;;;;6.75;6.35;;;36.80;99.90;;;;;;5098205;28;20438;-57
2022/08/14 10:50:02;;;;;;;6.55;6.20;;;37.20;99.90;;;;;;5098565;28;20202;-54
2022/08/14 10:52:33;;;;;;;6.95;6.47;;;37.20;99.90;;;;;;5096510;28;20206;-55
2022/08/14 10:55:12;;;;;;;6.22;5.82;;;36.50;99.90;;;;;;5096247;28;20216;-54
2022/08/14 10:57:51;;;;;;;5.67;5.27;;;36.40;99.90;;;;;;5096417;28;20430;-57
2022/08/14 11:00:25;;;;;;;6.33;5.93;;;36.20;99.90;;;;;;5097961;28;20289;-49
2022/08/14 11:03:01;;;;;;;7.30;6.67;;;35.20;99.90;;;;;;5096675;28;20469;-54
2022/08/14 11:05:42;;;;;;;6.60;6.20;;;35.00;99.90;;;;;;5095255;28;20440;-56
2022/08/14 11:08:14;;;;;;;7.00;6.60;;;35.70;99.90;;;;;;5077685;28;20575;-58
2022/08/14 11:10:44;;;;;;;6.60;6.20;;;35.50;99.90;;;;;;5092414;28;20467;-50
2022/08/14 11:13:17;;;;;;;6.50;6.10;;;34.90;99.90;;;;;;5098157;28;20498;-58
2022/08/14 11:15:47;;;;;;;6.37;6.00;;;35.20;99.90;;;;;;5095807;28;20849;-56
2022/08/14 11:18:15;;;;;;;6.67;6.27;;;35.80;99.90;;;;;;5094778;28;20546;-49
2022/08/14 11:20:50;;;;;;;7.03;6.53;;;35.50;99.90;;;;;;5094628;28;20539;-53
2022/08/14 11:23:21;;;;;;;7.30;6.70;;;34.90;99.90;;;;;;5096396;28;20777;-52
2022/08/14 11:25:49;;;;;;;7.10;6.60;;;34.10;99.90;;;;;;5093918;28;20483;-55
2022/08/14 11:28:19;;;;;;;7.13;6.63;;;33.30;99.90;;;;;;5096395;28;20460;-54
2022/08/14 11:30:50;;;;;;;7.00;6.50;;;32.30;99.90;;;;;;5093461;28;20474;-54
2022/08/14 11:33:23;;;;;;;7.60;7.00;;;32.40;99.90;;;;;;5096007;28;20563;-56
2022/08/14 11:35:51;;;;;;;7.23;6.80;;;33.00;99.90;;;;;;5093647;28;20434;-52
2022/08/14 11:38:20;;;;;;;7.13;6.73;;;33.20;99.90;;;;;;5093787;28;20496;-55
2022/08/14 11:40:49;;;;;;;6.60;6.13;;;32.70;99.90;;;;;;5093790;28;20460;-53
2022/08/14 11:43:24;;;;;;;7.13;6.73;;;32.80;99.90;;;;;;5095063;28;20483;-54
2022/08/14 11:45:56;;;;;;;8.33;7.73;;;32.70;99.90;;;;;;5093811;28;20930;-53
2022/08/14 11:48:28;;;;;;;7.47;6.97;;;32.50;99.90;;;;;;5092121;28;20492;-51
2022/08/14 11:50:59;;;;;;;7.90;7.40;;;32.50;99.90;;;;;;5092694;28;20487;-54
2022/08/14 11:53:29;;;;;;;7.60;7.10;;;32.10;99.90;;;;;;5094334;28;20470;-52
2022/08/14 11:56:00;;;;;;;7.97;7.27;;;32.10;99.90;;;;;;5094758;28;20895;-54
2022/08/14 11:58:37;;;;;;;6.97;6.50;;;32.10;99.90;;;;;;5094580;28;20775;-48
2022/08/14 12:01:08;;;;;;;8.33;7.80;;;32.00;99.90;;;;;;5094640;28;20458;-55
2022/08/14 12:03:39;;;;;;;7.20;6.70;;;32.20;99.90;;;;;;5093786;28;20542;-57
2022/08/14 12:06:09;;;;;;;7.30;6.83;;;33.00;99.90;;;;;;5094964;28;20682;-57
2022/08/14 12:08:41;;;;;;;7.50;6.93;;;32.80;99.90;;;;;;5093239;28;20463;-57
2022/08/14 12:11:12;;;;;;;7.00;6.60;;;33.50;99.90;;;;;;5096215;28;20889;-54
2022/08/14 12:13:43;;;;;;;7.43;6.83;;;33.50;99.90;;;;;;5094105;28;20458;-51
2022/08/14 12:16:15;;;;;;;7.17;6.77;;;33.50;99.90;;;;;;5094558;28;20475;-50
2022/08/14 12:18:44;;;;;;;6.57;6.07;;;33.10;99.90;;;;;;5092677;28;20475;-52
2022/08/14 12:21:17;;;;;;;6.50;6.10;;;32.90;99.90;;;;;;5095309;28;20801;-54
2022/08/14 12:23:45;;;;;;;7.20;6.80;;;32.60;99.90;;;;;;5095671;28;21010;-50
2022/08/14 12:26:16;;;;;;;6.97;6.47;;;33.00;99.90;;;;;;5093323;28;20565;-53
2022/08/14 12:28:45;;;;;;;6.77;6.37;;;34.20;99.90;;;;;;5095370;28;20543;-53
2022/08/14 12:31:18;;;;;;;6.27;5.77;;;34.50;99.90;;;;;;5094978;28;20487;-53
2022/08/14 12:33:56;;;;;;;6.20;5.70;;;34.60;99.90;;;;;;5095437;28;20433;-56
2022/08/14 12:36:29;;;;;;;6.77;6.27;;;35.60;99.90;;;;;;5094865;28;20443;-55
2022/08/14 12:39:05;;;;;;;5.27;4.87;;;36.10;99.90;;;;;;5093290;28;20462;-57
2022/08/14 12:41:37;;;;;;;5.37;5.07;;;36.80;99.90;;;;;;5095438;28;20888;-54
2022/08/14 12:44:06;;;;;;;6.95;6.55;;;37.00;99.90;;;;;;5096859;28;20518;-54
2022/08/14 12:46:36;;;;;;;7.80;7.30;;;37.00;99.90;;;;;;5096925;28;20212;-52
2022/08/14 12:49:12;;;;;;;6.82;5.75;;;36.30;99.90;;;;;;5094575;28;20292;-51
2022/08/14 12:51:43;;;;;;;7.73;6.80;;;36.00;99.90;;;;;;5093730;28;20202;-55
2022/08/14 12:54:20;;;;;;;6.50;6.13;;;36.10;99.90;;;;;;5095178;28;20452;-58
2022/08/14 12:56:48;;;;;;;6.95;6.38;;;36.60;99.90;;;;;;5095114;28;20241;-57
2022/08/14 12:59:20;;;;;;;7.68;7.18;;;37.10;99.90;;;;;;5092219;28;20597;-59
2022/08/14 13:02:02;;;;;;;6.85;6.45;;;37.20;99.90;;;;;;5094553;28;20267;-57
2022/08/14 13:04:30;;;;;;;6.90;6.50;;;37.70;99.90;;;;;;5096456;28;20225;-59
2022/08/14 13:07:07;;;;;;;8.27;7.78;;;37.90;99.90;;;;;;5095824;28;20219;-58
2022/08/14 13:09:38;;;;;;;5.95;5.65;;;37.80;99.90;;;;;;5097127;28;20607;-59
2022/08/14 13:12:12;;;;;;;8.60;7.75;;;37.70;99.90;;;;;;5088378;28;20202;-55
2022/08/14 13:14:44;;;;;;;6.43;6.03;;;37.30;99.90;;;;;;5095512;28;20199;-57
2022/08/14 13:17:13;;;;;;;13.93;12.93;;;36.70;99.90;;;;;;5095747;28;20336;-58